Time;durP1;ratioP1;P1;durP2;ratioP2;P2;SDS_P1;SDS_P2;PMS_P1;PMS_P2;Temp;Humidity;BMP_temperature;BMP_pressure;BME280_temperature;BME280_humidity;BME280_pressure;Samples;Min_cycle;Max_cycle;Signal;HPM_P1;HPM_P2
2021/10/13 00:01:50;;;;;;;4.15;2.10;;;8.10;99.90;;;;;;5038092;28;20026;-70
2021/10/13 00:04:16;;;;;;;6.28;2.33;;;8.10;99.90;;;;;;5049874;28;20030;-64
2021/10/13 00:06:41;;;;;;;3.40;1.85;;;8.10;99.90;;;;;;5047864;28;20445;-65
2021/10/13 00:09:07;;;;;;;3.65;1.98;;;9.00;99.90;;;;;;5035995;28;20083;-64
2021/10/13 00:11:34;;;;;;;4.75;1.65;;;8.60;99.90;;;;;;5038815;28;20029;-64
2021/10/13 00:14:01;;;;;;;7.25;2.17;;;8.40;99.90;;;;;;5033060;28;20132;-65
2021/10/13 00:16:30;;;;;;;5.43;2.47;;;8.40;99.90;;;;;;5048511;28;20029;-65
2021/10/13 00:18:55;;;;;;;7.18;1.98;;;8.30;99.90;;;;;;5048037;28;20445;-65
2021/10/13 00:21:21;;;;;;;6.88;1.85;;;8.20;99.90;;;;;;5051624;28;20049;-64
2021/10/13 00:23:47;;;;;;;3.17;1.60;;;8.20;99.90;;;;;;5049634;28;20036;-65
2021/10/13 00:26:12;;;;;;;4.30;2.10;;;8.20;99.90;;;;;;5049933;28;20187;-64
2021/10/13 00:28:38;;;;;;;2.90;1.80;;;8.10;99.90;;;;;;5051169;28;20112;-64
2021/10/13 00:31:04;;;;;;;7.18;2.05;;;8.00;99.90;;;;;;5049970;28;20485;-64
2021/10/13 00:33:29;;;;;;;3.33;1.80;;;8.00;99.90;;;;;;5051005;28;20025;-64
2021/10/13 00:35:55;;;;;;;5.38;2.03;;;8.10;99.90;;;;;;5050270;28;20032;-64
2021/10/13 00:38:20;;;;;;;6.25;1.90;;;8.00;99.90;;;;;;5050757;28;20032;-65
2021/10/13 00:40:46;;;;;;;4.47;1.90;;;8.00;99.90;;;;;;5049706;28;20025;-64
2021/10/13 00:43:12;;;;;;;3.22;1.83;;;8.00;99.90;;;;;;5048852;28;20025;-66
2021/10/13 00:45:37;;;;;;;3.30;1.13;;;8.00;99.90;;;;;;5050989;28;20036;-64
2021/10/13 00:48:03;;;;;;;5.00;1.70;;;8.00;99.90;;;;;;5048978;28;20036;-64
2021/10/13 00:50:29;;;;;;;4.00;2.00;;;8.00;99.90;;;;;;5050749;28;20481;-64
2021/10/13 00:52:55;;;;;;;7.88;1.95;;;7.90;99.90;;;;;;5050181;28;20054;-64
2021/10/13 00:55:21;;;;;;;5.47;1.67;;;8.00;99.90;;;;;;5051029;28;20413;-63
2021/10/13 00:57:49;;;;;;;2.80;1.90;;;7.90;99.90;;;;;;5049233;28;20031;-63
2021/10/13 01:00:16;;;;;;;4.03;1.80;;;7.90;99.90;;;;;;5049991;28;20029;-63
2021/10/13 01:02:51;;;;;;;2.95;1.98;;;7.90;99.90;;;;;;5050459;28;20033;-63
2021/10/13 01:05:42;;;;;;;6.32;2.58;;;7.80;99.90;;;;;;5048886;28;20090;-63
2021/10/13 01:08:33;;;;;;;5.90;1.98;;;7.90;99.90;;;;;;5049977;28;20025;-64
2021/10/13 01:11:22;;;;;;;5.90;2.15;;;7.90;99.90;;;;;;5048461;28;20075;-64
2021/10/13 01:13:58;;;;;;;6.65;2.42;;;7.80;99.90;;;;;;5050398;28;20025;-64
2021/10/13 01:16:53;;;;;;;4.93;2.50;;;7.80;99.90;;;;;;5050453;28;20108;-64
2021/10/13 01:19:21;;;;;;;4.75;2.42;;;7.80;99.90;;;;;;5048023;28;20033;-64
2021/10/13 01:22:05;;;;;;;4.63;2.97;;;7.80;99.90;;;;;;5048816;28;20033;-64
2021/10/13 01:24:31;;;;;;;4.60;2.60;;;7.80;99.90;;;;;;5049692;28;20421;-63
2021/10/13 01:27:21;;;;;;;6.80;2.80;;;7.90;99.90;;;;;;5049394;28;20514;-63
2021/10/13 01:29:50;;;;;;;5.88;3.40;;;7.90;99.90;;;;;;5048971;28;20111;-64
2021/10/13 01:32:25;;;;;;;5.43;3.03;;;7.90;99.90;;;;;;5048224;28;20021;-64
2021/10/13 01:34:56;;;;;;;7.88;2.85;;;7.90;99.90;;;;;;5033518;28;20424;-64
2021/10/13 01:37:26;;;;;;;6.13;2.43;;;7.90;99.90;;;;;;5029455;28;20038;-64
2021/10/13 01:39:55;;;;;;;7.88;2.92;;;7.90;99.90;;;;;;5030952;28;20272;-65
2021/10/13 01:42:22;;;;;;;4.40;2.63;;;7.90;99.90;;;;;;5030317;28;20040;-65
2021/10/13 01:44:56;;;;;;;4.07;2.72;;;8.00;99.90;;;;;;5062250;28;20493;-65
2021/10/13 01:47:22;;;;;;;6.10;3.58;;;8.00;99.90;;;;;;5030492;28;20434;-63
2021/10/13 01:49:52;;;;;;;5.65;3.40;;;8.00;99.90;;;;;;5030247;28;20032;-63
2021/10/13 01:52:19;;;;;;;8.98;3.90;;;8.00;99.90;;;;;;5029442;28;20064;-63
2021/10/13 01:54:45;;;;;;;8.35;3.58;;;8.00;99.90;;;;;;5030455;28;20053;-64
2021/10/13 01:57:12;;;;;;;5.65;3.40;;;8.10;99.90;;;;;;5028063;28;20026;-63
2021/10/13 01:59:41;;;;;;;5.10;3.20;;;8.00;99.90;;;;;;5030253;28;20482;-63
2021/10/13 02:02:08;;;;;;;4.65;3.47;;;8.10;99.90;;;;;;5029672;28;20021;-63
2021/10/13 02:04:41;;;;;;;7.72;2.80;;;8.10;99.90;;;;;;5028588;28;20112;-64
2021/10/13 02:07:10;;;;;;;6.95;2.88;;;8.10;99.90;;;;;;5028035;28;20132;-63
2021/10/13 02:09:37;;;;;;;5.32;3.35;;;8.10;99.90;;;;;;5028602;28;20045;-63
2021/10/13 02:12:04;;;;;;;7.00;3.42;;;8.10;99.90;;;;;;5027897;28;20056;-63
2021/10/13 02:14:35;;;;;;;5.07;3.53;;;8.10;99.90;;;;;;5028685;28;20142;-63
2021/10/13 02:17:02;;;;;;;5.18;3.10;;;8.20;99.90;;;;;;5029674;28;20036;-64
2021/10/13 02:19:29;;;;;;;7.53;3.00;;;8.10;99.90;;;;;;5029891;28;20053;-64
2021/10/13 02:21:56;;;;;;;5.72;3.28;;;8.20;99.90;;;;;;5028524;28;20040;-63
2021/10/13 02:24:29;;;;;;;7.05;3.47;;;8.10;99.90;;;;;;5029676;28;20379;-63
2021/10/13 02:27:04;;;;;;;8.07;3.10;;;8.20;99.90;;;;;;5028674;28;20159;-64
2021/10/13 02:29:29;;;;;;;10.57;3.58;;;8.20;99.90;;;;;;5030195;28;20082;-64
2021/10/13 02:31:56;;;;;;;10.52;3.92;;;8.30;99.90;;;;;;5030102;28;20040;-64
2021/10/13 02:34:22;;;;;;;7.28;3.33;;;8.20;99.90;;;;;;5033359;28;20040;-64
2021/10/13 02:36:47;;;;;;;5.10;3.55;;;8.20;99.90;;;;;;5033777;28;20116;-64
2021/10/13 02:39:13;;;;;;;6.30;3.42;;;8.20;99.90;;;;;;5031431;28;20499;-64
2021/10/13 02:41:39;;;;;;;9.40;3.97;;;8.20;99.90;;;;;;5033354;28;20056;-64
2021/10/13 02:44:07;;;;;;;8.20;3.40;;;8.20;99.90;;;;;;5031628;28;20438;-64
2021/10/13 02:46:59;;;;;;;6.65;3.42;;;8.20;99.90;;;;;;5033137;28;20471;-64
2021/10/13 02:49:45;;;;;;;7.80;3.55;;;8.20;99.90;;;;;;5033533;28;20085;-65
2021/10/13 02:52:13;;;;;;;5.43;3.50;;;8.10;99.90;;;;;;5031400;28;20033;-65
2021/10/13 02:54:54;;;;;;;9.15;4.20;;;8.10;99.90;;;;;;5033438;28;20041;-65
2021/10/13 02:57:22;;;;;;;10.73;3.97;;;8.10;99.90;;;;;;5032366;28;20028;-65
2021/10/13 02:59:52;;;;;;;4.72;3.58;;;8.10;99.90;;;;;;5033123;28;20084;-64
2021/10/13 03:02:26;;;;;;;5.13;2.83;;;8.10;99.90;;;;;;5032491;28;20100;-65
2021/10/13 03:04:56;;;;;;;5.85;3.50;;;8.10;99.90;;;;;;5033401;28;20034;-65
2021/10/13 03:07:26;;;;;;;8.73;4.47;;;8.20;99.90;;;;;;5032829;28;20033;-65
2021/10/13 03:10:00;;;;;;;6.82;5.22;;;8.10;99.90;;;;;;5033307;28;20079;-64
2021/10/13 03:12:36;;;;;;;4.63;3.90;;;8.10;99.90;;;;;;5033034;28;20029;-64
2021/10/13 03:15:03;;;;;;;4.85;3.67;;;8.10;99.90;;;;;;5030673;28;20470;-65
2021/10/13 03:17:29;;;;;;;7.65;3.92;;;8.10;99.90;;;;;;5032915;28;20112;-64
2021/10/13 03:19:56;;;;;;;5.82;3.95;;;8.10;99.90;;;;;;5032653;28;20030;-65
2021/10/13 03:22:24;;;;;;;5.75;3.40;;;8.20;99.90;;;;;;5032029;28;20056;-65
2021/10/13 03:24:53;;;;;;;6.60;3.42;;;8.20;99.90;;;;;;5030794;28;20049;-65
2021/10/13 03:27:23;;;;;;;7.40;4.00;;;8.20;99.90;;;;;;5032205;28;20435;-65
2021/10/13 03:29:48;;;;;;;6.75;4.25;;;8.20;99.90;;;;;;5031467;28;20025;-65
2021/10/13 03:32:17;;;;;;;5.93;4.57;;;8.20;99.90;;;;;;5031844;28;20367;-65
2021/10/13 03:34:42;;;;;;;5.28;3.60;;;8.20;99.90;;;;;;5032688;28;20029;-63
2021/10/13 03:37:08;;;;;;;7.28;4.43;;;8.10;99.90;;;;;;5030534;28;20482;-64
2021/10/13 03:39:34;;;;;;;6.18;4.05;;;8.10;99.90;;;;;;5032595;28;20065;-64
2021/10/13 03:42:01;;;;;;;8.57;4.63;;;8.20;99.90;;;;;;5031970;28;20022;-64
2021/10/13 03:44:27;;;;;;;6.70;4.50;;;8.20;99.90;;;;;;5032629;28;20105;-64
2021/10/13 03:46:52;;;;;;;13.60;5.32;;;8.30;99.90;;;;;;5032215;28;20120;-64
2021/10/13 03:49:18;;;;;;;7.60;4.60;;;8.30;99.90;;;;;;5031394;28;20467;-64
2021/10/13 03:51:44;;;;;;;6.82;4.07;;;8.20;99.90;;;;;;5031832;28;20077;-64
2021/10/13 03:54:09;;;;;;;10.73;5.05;;;8.30;99.90;;;;;;5031207;28;20107;-64
2021/10/13 03:56:35;;;;;;;9.45;4.53;;;8.30;99.90;;;;;;5031952;28;20034;-64
2021/10/13 03:59:01;;;;;;;9.65;5.32;;;8.30;99.90;;;;;;5031926;28;20029;-65
2021/10/13 04:01:27;;;;;;;9.27;4.78;;;8.20;99.90;;;;;;5031008;28;20029;-65
2021/10/13 04:03:52;;;;;;;7.47;4.30;;;8.30;99.90;;;;;;5032183;28;20125;-65
2021/10/13 04:06:18;;;;;;;9.63;5.50;;;8.30;99.90;;;;;;5031346;28;20030;-63
2021/10/13 04:08:44;;;;;;;16.67;5.10;;;8.30;99.90;;;;;;5032248;28;20041;-65
2021/10/13 04:11:09;;;;;;;6.80;4.95;;;8.20;99.90;;;;;;5031212;28;20018;-64
2021/10/13 04:13:36;;;;;;;6.60;4.63;;;8.30;99.90;;;;;;5031602;28;20375;-64
2021/10/13 04:16:02;;;;;;;6.63;4.50;;;8.30;99.90;;;;;;5030327;28;20029;-64
2021/10/13 04:18:28;;;;;;;7.60;4.82;;;8.30;99.90;;;;;;5031943;28;20120;-64
2021/10/13 04:20:53;;;;;;;8.20;4.78;;;8.30;99.90;;;;;;5030498;28;20064;-64
2021/10/13 04:23:19;;;;;;;6.82;4.40;;;8.40;99.90;;;;;;5031183;28;20030;-65
2021/10/13 04:25:45;;;;;;;11.65;4.35;;;8.50;99.90;;;;;;5031071;28;20057;-64
2021/10/13 04:28:11;;;;;;;6.88;4.22;;;8.50;99.90;;;;;;5062950;28;20115;-65
2021/10/13 04:30:37;;;;;;;5.80;4.15;;;8.40;99.90;;;;;;5031708;28;20057;-65
2021/10/13 04:33:04;;;;;;;5.20;4.53;;;8.50;99.90;;;;;;5031882;28;20108;-76
2021/10/13 04:35:30;;;;;;;9.25;4.50;;;8.40;99.90;;;;;;5031807;28;20026;-64
2021/10/13 04:37:56;;;;;;;9.95;5.80;;;8.40;99.90;;;;;;5030103;28;20052;-64
2021/10/13 04:40:22;;;;;;;8.98;5.30;;;8.30;99.90;;;;;;5029098;28;20025;-64
2021/10/13 04:42:47;;;;;;;8.48;4.68;;;8.30;99.90;;;;;;5031125;28;20525;-65
2021/10/13 04:45:13;;;;;;;7.90;5.05;;;8.30;99.90;;;;;;5029157;28;20033;-68
2021/10/13 04:47:39;;;;;;;15.75;5.72;;;8.30;99.90;;;;;;5031213;28;20533;-65
2021/10/13 04:50:06;;;;;;;8.70;6.35;;;8.40;99.90;;;;;;5030782;28;20029;-66
2021/10/13 04:52:31;;;;;;;9.30;6.13;;;8.40;99.90;;;;;;5029779;28;20036;-65
2021/10/13 04:54:57;;;;;;;15.27;6.45;;;8.40;99.90;;;;;;5029306;28;20116;-64
2021/10/13 04:57:23;;;;;;;11.15;6.03;;;8.40;99.90;;;;;;5030119;28;20448;-64
2021/10/13 04:59:50;;;;;;;10.98;7.07;;;8.30;99.90;;;;;;5030698;28;20513;-64
2021/10/13 05:02:15;;;;;;;11.73;7.45;;;8.40;99.90;;;;;;5030425;28;20102;-64
2021/10/13 05:04:41;;;;;;;8.23;6.18;;;8.40;99.90;;;;;;5030837;28;20060;-64
2021/10/13 05:07:07;;;;;;;10.55;6.97;;;8.30;99.90;;;;;;5029949;28;20033;-64
2021/10/13 05:09:32;;;;;;;10.50;6.93;;;8.30;99.90;;;;;;5030689;28;20030;-64
2021/10/13 05:11:58;;;;;;;12.20;7.45;;;8.20;99.90;;;;;;5031028;28;20445;-63
2021/10/13 05:14:23;;;;;;;14.73;7.00;;;8.20;99.90;;;;;;5028979;28;20026;-64
2021/10/13 05:16:49;;;;;;;12.88;7.40;;;8.20;99.90;;;;;;5031058;28;20112;-63
2021/10/13 05:19:15;;;;;;;9.48;6.65;;;8.30;99.90;;;;;;5029981;28;20107;-64
2021/10/13 05:21:40;;;;;;;13.25;7.65;;;8.30;99.90;;;;;;5030905;28;20037;-65
2021/10/13 05:24:08;;;;;;;10.55;6.63;;;8.40;99.90;;;;;;5030167;28;20034;-75
2021/10/13 05:26:34;;;;;;;8.68;6.07;;;8.50;99.90;;;;;;5029223;28;20111;-65
2021/10/13 05:29:00;;;;;;;10.35;6.15;;;8.40;99.90;;;;;;5030440;28;20030;-65
2021/10/13 05:31:26;;;;;;;12.63;7.22;;;8.50;99.90;;;;;;5030356;28;20434;-64
2021/10/13 05:33:52;;;;;;;13.68;6.90;;;8.50;99.90;;;;;;5030596;28;20104;-64
2021/10/13 05:36:17;;;;;;;11.93;6.28;;;8.50;99.90;;;;;;5028554;28;20546;-65
2021/10/13 05:38:43;;;;;;;9.65;6.90;;;8.50;99.90;;;;;;5030505;28;20030;-65
2021/10/13 05:41:09;;;;;;;14.90;6.90;;;8.40;99.90;;;;;;5029775;28;20022;-64
2021/10/13 05:43:34;;;;;;;8.55;6.60;;;8.40;99.90;;;;;;5030490;28;20033;-63
2021/10/13 05:46:00;;;;;;;11.55;6.43;;;8.40;99.90;;;;;;5030101;28;20109;-65
2021/10/13 05:48:26;;;;;;;11.75;5.85;;;8.50;99.90;;;;;;5029839;28;20412;-65
2021/10/13 05:50:52;;;;;;;13.30;6.75;;;8.50;99.90;;;;;;5030883;28;20053;-65
2021/10/13 05:53:19;;;;;;;13.90;6.78;;;8.50;99.90;;;;;;5028663;28;20025;-65
2021/10/13 05:55:44;;;;;;;10.27;7.43;;;8.40;99.90;;;;;;5030741;28;20037;-66
2021/10/13 05:58:10;;;;;;;11.30;7.32;;;8.40;99.90;;;;;;5061753;28;20032;-65
2021/10/13 06:00:36;;;;;;;8.73;6.50;;;8.50;99.90;;;;;;5030064;28;20033;-64
2021/10/13 06:03:02;;;;;;;11.43;7.10;;;8.50;99.90;;;;;;5029055;28;20107;-64
2021/10/13 06:05:28;;;;;;;14.18;6.68;;;8.60;99.90;;;;;;5029900;28;20075;-64
2021/10/13 06:07:54;;;;;;;14.10;6.65;;;8.60;99.90;;;;;;5031996;28;20116;-64
2021/10/13 06:10:20;;;;;;;11.20;5.85;;;8.60;99.90;;;;;;5033180;28;20044;-64
2021/10/13 06:12:45;;;;;;;13.15;7.03;;;8.50;99.90;;;;;;5033732;28;20021;-65
2021/10/13 06:15:11;;;;;;;9.55;6.57;;;8.50;99.90;;;;;;5031673;28;20435;-65
2021/10/13 06:17:37;;;;;;;11.52;6.47;;;8.60;99.90;;;;;;5032693;28;20410;-65
2021/10/13 06:20:04;;;;;;;10.82;6.88;;;8.70;99.90;;;;;;5032806;28;20026;-65
2021/10/13 06:22:30;;;;;;;16.10;7.35;;;8.70;99.90;;;;;;5033332;28;20061;-64
2021/10/13 06:24:56;;;;;;;10.75;6.97;;;8.70;99.90;;;;;;5033778;28;20120;-65
2021/10/13 06:27:23;;;;;;;15.38;7.55;;;8.90;99.90;;;;;;5033262;28;20037;-64
2021/10/13 06:29:49;;;;;;;13.75;7.65;;;8.90;99.90;;;;;;5065282;28;20029;-65
2021/10/13 06:32:14;;;;;;;16.90;8.45;;;8.90;99.90;;;;;;5033058;28;20391;-65
2021/10/13 06:34:40;;;;;;;18.40;9.68;;;8.90;99.90;;;;;;5033451;28;20026;-64
2021/10/13 06:37:06;;;;;;;19.13;9.18;;;8.90;99.90;;;;;;5033726;28;20037;-65
2021/10/13 06:39:31;;;;;;;16.60;8.80;;;8.90;99.90;;;;;;5032751;28;20026;-64
2021/10/13 06:41:57;;;;;;;14.70;9.48;;;8.80;99.90;;;;;;5033821;28;20022;-64
2021/10/13 06:44:23;;;;;;;17.05;9.85;;;8.80;99.90;;;;;;5032681;28;20104;-65
2021/10/13 06:46:50;;;;;;;21.58;9.88;;;9.00;99.90;;;;;;5033697;28;20033;-64
2021/10/13 06:49:16;;;;;;;18.33;10.10;;;9.00;99.90;;;;;;5031659;28;20120;-65
2021/10/13 06:51:42;;;;;;;18.63;10.20;;;9.00;99.90;;;;;;5032054;28;20356;-65
2021/10/13 06:54:08;;;;;;;18.17;10.93;;;9.10;99.90;;;;;;5033355;28;20026;-64
2021/10/13 06:56:35;;;;;;;17.42;11.13;;;9.10;99.90;;;;;;5031327;28;20039;-65
2021/10/13 06:59:00;;;;;;;23.45;11.52;;;9.30;99.90;;;;;;5032887;28;20417;-66
2021/10/13 07:01:26;;;;;;;17.80;10.07;;;9.50;99.90;;;;;;5031310;28;20112;-65
2021/10/13 07:03:51;;;;;;;16.50;10.63;;;9.60;99.90;;;;;;5033493;28;20035;-64
2021/10/13 07:06:17;;;;;;;15.68;10.73;;;9.70;99.90;;;;;;5032835;28;20040;-64
2021/10/13 07:08:43;;;;;;;15.35;10.25;;;9.70;99.90;;;;;;5033547;28;20061;-64
2021/10/13 07:11:09;;;;;;;16.90;10.05;;;9.90;99.90;;;;;;5033079;28;20432;-64
2021/10/13 07:13:36;;;;;;;18.70;11.30;;;9.90;99.90;;;;;;5031273;28;20435;-64
2021/10/13 07:16:02;;;;;;;18.58;10.38;;;10.00;99.90;;;;;;5031948;28;20029;-65
2021/10/13 07:18:27;;;;;;;18.83;10.00;;;10.00;99.90;;;;;;5031216;28;20029;-65
2021/10/13 07:20:53;;;;;;;16.15;9.63;;;10.10;99.90;;;;;;5033514;28;20051;-66
2021/10/13 07:23:19;;;;;;;14.18;9.80;;;10.10;99.90;;;;;;5031969;28;20071;-68
2021/10/13 07:25:45;;;;;;;16.05;9.57;;;10.20;99.90;;;;;;5033231;28;20068;-64
2021/10/13 07:28:12;;;;;;;15.85;10.20;;;10.00;99.90;;;;;;5031589;28;20025;-65
2021/10/13 07:30:38;;;;;;;17.15;10.30;;;9.90;99.90;;;;;;5031384;28;20026;-65
2021/10/13 07:33:07;;;;;;;13.52;8.98;;;10.00;99.90;;;;;;5033203;28;20366;-64
2021/10/13 07:35:34;;;;;;;18.02;9.88;;;10.20;99.90;;;;;;5032002;28;20061;-64
2021/10/13 07:38:02;;;;;;;14.73;10.73;;;10.10;99.90;;;;;;5032586;28;20418;-67
2021/10/13 07:40:28;;;;;;;16.40;8.95;;;10.40;99.90;;;;;;5032092;28;20511;-65
2021/10/13 07:42:54;;;;;;;18.42;10.00;;;10.20;99.90;;;;;;5031631;28;20112;-64
2021/10/13 07:45:20;;;;;;;18.90;10.05;;;10.00;99.90;;;;;;5030441;28;20034;-64
2021/10/13 07:47:46;;;;;;;18.73;10.20;;;10.00;99.90;;;;;;5031227;28;20395;-65
2021/10/13 07:50:12;;;;;;;15.75;9.82;;;10.50;99.90;;;;;;5032593;28;20028;-65
2021/10/13 07:52:38;;;;;;;11.82;8.73;;;11.30;99.90;;;;;;5030302;28;20060;-65
2021/10/13 07:55:05;;;;;;;12.75;9.27;;;12.00;99.90;;;;;;5032278;28;20077;-68
2021/10/13 07:57:31;;;;;;;15.70;8.95;;;12.20;99.90;;;;;;5063986;28;20387;-64
2021/10/13 07:59:57;;;;;;;21.88;12.23;;;12.00;99.90;;;;;;5032782;28;20021;-65
2021/10/13 08:02:23;;;;;;;12.63;9.13;;;11.90;99.90;;;;;;5031808;28;20024;-65
2021/10/13 08:04:49;;;;;;;14.70;9.18;;;12.00;99.90;;;;;;5031190;28;20032;-65
2021/10/13 08:07:16;;;;;;;17.25;7.95;;;12.30;99.90;;;;;;5032322;28;20037;-65
2021/10/13 08:09:43;;;;;;;11.63;6.63;;;12.40;99.90;;;;;;5032467;28;20065;-65
2021/10/13 08:12:09;;;;;;;9.95;6.70;;;12.40;99.90;;;;;;5031409;28;20092;-65
2021/10/13 08:14:35;;;;;;;8.13;5.75;;;12.40;99.90;;;;;;5031725;28;20036;-64
2021/10/13 08:17:02;;;;;;;10.45;5.43;;;12.30;99.90;;;;;;5031947;28;20041;-65
2021/10/13 08:19:28;;;;;;;9.05;5.57;;;12.40;99.90;;;;;;5030543;28;20463;-64
2021/10/13 08:21:54;;;;;;;8.82;5.72;;;12.30;99.90;;;;;;5064155;28;20033;-65
2021/10/13 08:24:20;;;;;;;8.40;5.45;;;12.30;99.90;;;;;;5029688;28;20436;-68
2021/10/13 08:26:46;;;;;;;8.20;5.15;;;12.20;99.90;;;;;;5044971;28;20435;-66
2021/10/13 08:29:12;;;;;;;6.18;4.80;;;12.10;99.90;;;;;;5035663;28;20048;-65
2021/10/13 08:31:38;;;;;;;7.28;5.32;;;12.20;99.90;;;;;;5050385;28;20289;-65
2021/10/13 08:34:04;;;;;;;8.38;5.38;;;12.20;99.90;;;;;;5050265;28;20020;-66
2021/10/13 08:36:29;;;;;;;7.53;5.15;;;12.20;99.90;;;;;;5049042;28;20029;-66
2021/10/13 08:38:55;;;;;;;10.25;5.28;;;12.10;99.90;;;;;;5048857;28;20021;-66
2021/10/13 08:41:22;;;;;;;6.13;4.88;;;12.00;99.90;;;;;;5051012;28;20033;-66
2021/10/13 08:43:48;;;;;;;9.15;4.85;;;12.00;99.90;;;;;;5050239;28;20107;-66
2021/10/13 08:46:14;;;;;;;7.43;4.70;;;12.00;99.90;;;;;;5050018;28;20033;-67
2021/10/13 08:48:40;;;;;;;7.40;5.03;;;12.20;99.90;;;;;;5050911;28;20508;-65
2021/10/13 08:51:06;;;;;;;6.97;4.72;;;12.10;99.90;;;;;;5049675;28;20021;-66
2021/10/13 08:53:32;;;;;;;9.45;5.03;;;12.10;99.90;;;;;;5049538;28;20052;-66
2021/10/13 08:55:57;;;;;;;11.45;5.35;;;12.00;99.90;;;;;;5051335;28;20061;-66
2021/10/13 08:58:26;;;;;;;6.97;5.05;;;12.10;99.90;;;;;;5050236;28;20021;-65
2021/10/13 09:01:11;;;;;;;17.13;8.98;;;12.10;99.90;;;;;;5048160;28;20029;-65
2021/10/13 09:03:46;;;;;;;17.95;9.30;;;12.10;99.90;;;;;;5044178;28;20033;-65
2021/10/13 09:06:26;;;;;;;8.95;5.47;;;12.20;99.90;;;;;;5049335;28;20060;-65
2021/10/13 09:09:09;;;;;;;7.30;4.30;;;12.30;99.90;;;;;;5048829;28;20021;-65
2021/10/13 09:11:46;;;;;;;7.88;3.17;;;12.50;99.90;;;;;;5048031;28;20029;-66
2021/10/13 09:14:29;;;;;;;7.85;4.18;;;12.70;99.90;;;;;;5048952;28;20439;-65
2021/10/13 09:17:08;;;;;;;6.88;3.67;;;13.10;99.90;;;;;;5048844;28;20386;-65
2021/10/13 09:19:38;;;;;;;9.68;3.90;;;13.50;99.90;;;;;;5050055;28;20415;-65
2021/10/13 09:22:07;;;;;;;6.45;3.03;;;13.70;99.90;;;;;;5042283;28;20029;-68
2021/10/13 09:24:40;;;;;;;6.43;3.13;;;13.90;99.90;;;;;;5030943;28;20053;-66
2021/10/13 09:27:25;;;;;;;4.85;3.00;;;13.80;99.90;;;;;;5043402;28;20139;-64
2021/10/13 09:30:04;;;;;;;7.13;3.83;;;13.70;99.90;;;;;;5048935;28;20055;-66
2021/10/13 09:32:30;;;;;;;8.55;4.47;;;13.80;99.90;;;;;;5046443;28;20059;-66
2021/10/13 09:34:57;;;;;;;7.05;3.55;;;13.90;99.90;;;;;;5046266;28;20029;-66
2021/10/13 09:37:24;;;;;;;6.47;3.80;;;13.80;99.90;;;;;;5047560;28;20021;-66
2021/10/13 09:40:03;;;;;;;7.65;4.72;;;13.80;99.90;;;;;;5048701;28;20474;-64
2021/10/13 09:42:37;;;;;;;11.75;5.65;;;13.80;99.90;;;;;;5052873;28;20029;-66
2021/10/13 09:45:03;;;;;;;10.80;6.05;;;13.60;99.90;;;;;;5052691;28;20029;-66
2021/10/13 09:47:34;;;;;;;9.68;5.85;;;13.40;99.90;;;;;;5049228;28;20078;-66
2021/10/13 09:50:06;;;;;;;8.93;5.57;;;13.10;99.90;;;;;;5052691;28;20033;-67
2021/10/13 09:52:32;;;;;;;6.57;4.80;;;13.10;99.90;;;;;;5051959;28;20025;-65
2021/10/13 09:55:02;;;;;;;9.82;5.60;;;13.10;99.90;;;;;;5054049;28;20097;-64
2021/10/13 09:57:33;;;;;;;11.05;5.35;;;13.40;99.90;;;;;;5052018;28;20029;-67
2021/10/13 10:00:19;;;;;;;9.07;5.53;;;14.00;99.90;;;;;;5052070;28;20029;-64
2021/10/13 10:03:01;;;;;;;11.05;6.03;;;14.10;99.90;;;;;;5053412;28;20044;-64
2021/10/13 10:05:33;;;;;;;8.38;6.00;;;14.00;99.90;;;;;;5051998;28;20500;-65
2021/10/13 10:08:03;;;;;;;11.27;5.30;;;14.50;99.90;;;;;;5052071;28;20049;-65
2021/10/13 10:10:30;;;;;;;11.68;5.25;;;15.00;99.90;;;;;;5049863;28;20036;-65
2021/10/13 10:13:01;;;;;;;9.85;5.05;;;15.20;99.90;;;;;;5034453;28;20137;-66
2021/10/13 10:15:56;;;;;;;6.90;5.15;;;15.10;99.90;;;;;;5033396;28;20029;-66
2021/10/13 10:18:31;;;;;;;5.47;4.55;;;14.50;99.90;;;;;;5031443;28;20083;-65
2021/10/13 10:21:20;;;;;;;6.65;5.20;;;14.60;99.90;;;;;;5031785;28;20092;-65
2021/10/13 10:23:48;;;;;;;7.25;4.13;;;15.30;99.90;;;;;;5031235;28;20083;-66
2021/10/13 10:26:26;;;;;;;7.63;4.18;;;15.40;99.90;;;;;;5031245;28;20115;-65
2021/10/13 10:28:54;;;;;;;8.95;4.13;;;15.90;99.90;;;;;;5036553;28;20077;-65
2021/10/13 10:31:29;;;;;;;5.40;3.72;;;15.80;99.90;;;;;;5054211;28;20025;-65
2021/10/13 10:34:10;;;;;;;6.55;3.65;;;15.90;99.90;;;;;;5052736;28;20028;-65
2021/10/13 10:36:38;;;;;;;5.90;3.30;;;15.70;99.60;;;;;;5051606;28;20036;-66
2021/10/13 10:39:16;;;;;;;5.80;3.67;;;15.60;99.60;;;;;;5052186;28;20029;-66
2021/10/13 10:41:44;;;;;;;7.80;3.83;;;15.50;99.50;;;;;;5052653;28;20146;-66
2021/10/13 10:44:45;;;;;;;6.28;3.63;;;15.20;99.70;;;;;;5052050;28;20025;-66
2021/10/13 10:47:16;;;;;;;7.67;3.50;;;14.80;99.90;;;;;;5052982;28;20409;-67
2021/10/13 10:49:51;;;;;;;6.63;3.22;;;14.30;99.90;;;;;;5052781;28;20259;-65
2021/10/13 10:52:23;;;;;;;5.47;2.85;;;14.10;99.90;;;;;;5051889;28;20035;-66
2021/10/13 10:55:04;;;;;;;7.07;4.28;;;14.10;99.90;;;;;;5050771;28;20509;-66
2021/10/13 10:57:30;;;;;;;10.32;4.38;;;14.10;99.90;;;;;;5053157;28;20083;-66
2021/10/13 10:59:57;;;;;;;4.35;3.40;;;13.80;99.90;;;;;;5052340;28;20382;-65
2021/10/13 11:02:24;;;;;;;7.53;3.50;;;13.80;99.90;;;;;;5052039;28;20429;-66
2021/10/13 11:05:11;;;;;;;8.98;4.15;;;13.80;99.90;;;;;;5053041;28;20108;-68
2021/10/13 11:07:40;;;;;;;14.50;4.70;;;14.00;99.90;;;;;;5052910;28;20029;-66
2021/10/13 11:10:09;;;;;;;4.50;3.58;;;14.30;99.90;;;;;;5053303;28;20403;-66
2021/10/13 11:12:53;;;;;;;6.78;3.25;;;14.50;99.90;;;;;;5052641;28;20057;-65
2021/10/13 11:15:24;;;;;;;6.75;3.38;;;14.60;99.90;;;;;;5053254;28;20040;-65
2021/10/13 11:17:49;;;;;;;5.18;3.17;;;14.80;99.90;;;;;;5052676;28;20083;-67
2021/10/13 11:20:18;;;;;;;5.25;3.10;;;14.80;99.90;;;;;;5052802;28;20105;-66
2021/10/13 11:22:44;;;;;;;4.88;2.92;;;14.90;99.90;;;;;;5052040;28;20033;-65
2021/10/13 11:25:18;;;;;;;4.60;2.78;;;14.80;99.90;;;;;;5050489;28;20095;-66
2021/10/13 11:28:04;;;;;;;5.03;2.60;;;14.90;99.90;;;;;;5051030;28;20394;-67
2021/10/13 11:30:38;;;;;;;6.05;2.72;;;14.90;99.90;;;;;;5050452;28;20036;-66
2021/10/13 11:33:26;;;;;;;4.63;3.30;;;14.90;99.90;;;;;;5051441;28;20327;-66
2021/10/13 11:36:03;;;;;;;5.22;2.78;;;14.70;99.90;;;;;;5051058;28;20072;-65
2021/10/13 11:38:36;;;;;;;6.00;2.60;;;14.50;99.90;;;;;;5052017;28;20057;-66
2021/10/13 11:41:13;;;;;;;4.93;2.67;;;14.50;99.90;;;;;;5051313;28;20052;-65
2021/10/13 11:43:40;;;;;;;4.78;3.28;;;14.30;99.90;;;;;;5051725;28;20463;-66
2021/10/13 11:46:06;;;;;;;3.85;2.67;;;14.10;99.90;;;;;;5050750;28;20033;-65
2021/10/13 11:48:35;;;;;;;3.70;2.45;;;13.70;99.90;;;;;;5051885;28;20033;-66
2021/10/13 11:51:10;;;;;;;5.28;2.90;;;13.60;99.90;;;;;;5050464;28;20029;-65
2021/10/13 11:53:36;;;;;;;4.22;2.88;;;13.40;99.90;;;;;;5051678;28;20037;-64
2021/10/13 11:56:13;;;;;;;8.05;4.35;;;13.30;99.90;;;;;;5052271;28;20075;-65
2021/10/13 11:58:41;;;;;;;16.95;9.40;;;13.30;99.90;;;;;;5050004;28;20031;-65
2021/10/13 12:01:07;;;;;;;7.95;4.13;;;13.20;99.90;;;;;;5050875;28;20036;-66
2021/10/13 12:03:34;;;;;;;9.27;3.13;;;13.30;99.90;;;;;;5050949;28;20032;-66
2021/10/13 12:06:02;;;;;;;8.40;2.75;;;13.40;99.90;;;;;;5050792;28;20039;-66
2021/10/13 12:08:33;;;;;;;4.68;2.03;;;13.40;99.90;;;;;;5050184;28;20029;-64
2021/10/13 12:11:10;;;;;;;3.20;2.30;;;13.60;99.90;;;;;;5050200;28;20025;-65
2021/10/13 12:13:38;;;;;;;3.58;2.22;;;13.80;99.90;;;;;;5049902;28;20103;-66
2021/10/13 12:16:09;;;;;;;3.53;2.05;;;14.30;99.90;;;;;;5050600;28;20029;-66
2021/10/13 12:18:47;;;;;;;4.22;2.15;;;14.90;99.90;;;;;;5049692;28;20032;-67
2021/10/13 12:21:22;;;;;;;4.20;2.33;;;15.30;99.90;;;;;;5050195;28;20033;-66
2021/10/13 12:23:58;;;;;;;3.72;2.22;;;15.70;99.90;;;;;;5049701;28;20047;-65
2021/10/13 12:26:27;;;;;;;6.25;2.50;;;16.10;99.90;;;;;;5051278;28;20049;-66
2021/10/13 12:28:55;;;;;;;3.63;1.77;;;17.00;99.50;;;;;;5050976;28;20047;-66
2021/10/13 12:31:27;;;;;;;5.53;2.30;;;17.90;99.00;;;;;;5049789;28;20039;-65
2021/10/13 12:33:54;;;;;;;4.07;2.75;;;18.40;97.90;;;;;;5048902;28;20090;-65
2021/10/13 12:36:31;;;;;;;4.60;2.28;;;19.30;96.80;;;;;;5049556;28;20059;-65
2021/10/13 12:38:59;;;;;;;9.10;1.95;;;19.50;96.00;;;;;;5051350;28;20017;-65
2021/10/13 12:41:39;;;;;;;5.25;2.55;;;19.60;95.30;;;;;;5049858;28;20512;-65
2021/10/13 12:44:21;;;;;;;9.07;2.28;;;19.30;93.80;;;;;;5049448;28;20028;-66
2021/10/13 12:47:04;;;;;;;9.18;2.47;;;19.40;93.40;;;;;;5049191;28;20068;-66
2021/10/13 12:49:42;;;;;;;3.72;1.50;;;19.60;93.10;;;;;;5049720;28;20033;-65
2021/10/13 12:52:13;;;;;;;1.77;1.17;;;20.50;92.10;;;;;;5049832;28;20162;-66
2021/10/13 12:54:46;;;;;;;2.25;1.40;;;20.80;90.30;;;;;;5049595;28;20045;-66
2021/10/13 12:57:14;;;;;;;2.05;1.00;;;20.60;87.40;;;;;;5050115;28;20126;-66
2021/10/13 12:59:41;;;;;;;4.53;1.20;;;21.10;87.40;;;;;;5050722;28;20029;-66